createdAt,value
2017-11-25T00:01:40.794Z,28.10
2017-11-25T00:04:07.160Z,32.27
2017-11-25T00:06:33.773Z,29.97
2017-11-25T00:09:00.429Z,33.30
2017-11-25T00:11:27.054Z,34.83
2017-11-25T00:13:53.449Z,35.50
2017-11-25T00:16:19.891Z,34.27
2017-11-25T00:18:46.332Z,31.87
2017-11-25T00:21:12.754Z,26.67
2017-11-25T00:23:39.217Z,28.50
2017-11-25T00:26:05.609Z,27.27
2017-11-25T00:28:32.050Z,28.80
2017-11-25T00:30:58.737Z,24.70
2017-11-25T00:33:25.231Z,28.30
2017-11-25T00:35:51.675Z,27.07
2017-11-25T00:38:17.936Z,22.20
2017-11-25T00:40:44.320Z,25.33
2017-11-25T00:43:10.895Z,24.37
2017-11-25T00:45:37.391Z,24.47
2017-11-25T00:48:03.965Z,24.17
2017-11-25T00:50:30.617Z,24.17
2017-11-25T00:52:57.239Z,29.90
2017-11-25T00:55:23.688Z,25.53
2017-11-25T00:57:50.121Z,25.23
2017-11-25T01:00:16.743Z,23.60
2017-11-25T01:02:43.182Z,23.23
2017-11-25T01:05:09.625Z,27.50
2017-11-25T01:07:36.241Z,22.57
2017-11-25T01:10:02.667Z,23.80
2017-11-25T01:12:29.097Z,30.73
2017-11-25T01:14:55.769Z,20.57
2017-11-25T01:17:22.383Z,24.85
2017-11-25T01:19:48.636Z,22.47
2017-11-25T01:22:15.264Z,24.67
2017-11-25T01:24:41.659Z,29.03
2017-11-25T01:27:08.000Z,21.90
2017-11-25T01:29:34.445Z,23.60
2017-11-25T01:32:01.009Z,23.80
2017-11-25T01:34:27.624Z,21.43
2017-11-25T01:36:54.286Z,23.93
2017-11-25T01:39:20.905Z,20.23
2017-11-25T01:41:47.350Z,24.10
2017-11-25T01:44:13.841Z,32.78
2017-11-25T01:46:40.291Z,23.73
2017-11-25T01:49:06.870Z,22.17
2017-11-25T01:51:33.500Z,23.93
2017-11-25T01:54:00.131Z,22.50
2017-11-25T01:56:26.648Z,22.80
2017-11-25T01:58:53.072Z,21.27
2017-11-25T02:01:19.483Z,21.97
2017-11-25T02:03:46.282Z,25.27
2017-11-25T02:06:12.915Z,24.83
2017-11-25T02:08:39.534Z,23.13
2017-11-25T02:11:05.993Z,22.90
2017-11-25T02:13:32.631Z,30.37
2017-11-25T02:15:59.256Z,25.20
2017-11-25T02:18:25.905Z,30.50
2017-11-25T02:20:52.526Z,31.10
2017-11-25T02:23:18.938Z,33.03
2017-11-25T02:25:45.277Z,26.70
2017-11-25T02:28:11.701Z,26.20
2017-11-25T02:30:38.135Z,28.90
2017-11-25T02:33:04.577Z,30.53
2017-11-25T02:35:31.095Z,31.60
2017-11-25T02:37:57.538Z,27.83
2017-11-25T02:40:23.975Z,32.60
2017-11-25T02:42:50.652Z,31.00
2017-11-25T02:45:17.289Z,36.30
2017-11-25T02:47:43.936Z,33.97
2017-11-25T02:50:10.544Z,28.10
2017-11-25T02:52:36.983Z,32.27
2017-11-25T02:55:03.624Z,31.63
2017-11-25T02:57:30.122Z,27.80
2017-11-25T02:59:56.586Z,33.77
2017-11-25T03:02:22.999Z,34.77
2017-11-25T03:04:49.443Z,33.50
2017-11-25T03:07:15.959Z,28.20
2017-11-25T03:09:42.546Z,32.27
2017-11-25T03:12:09.164Z,37.43
2017-11-25T03:14:35.583Z,31.13
2017-11-25T03:17:02.002Z,30.10
2017-11-25T03:19:28.689Z,38.10
2017-11-25T03:21:55.310Z,36.90
2017-11-25T03:24:21.964Z,32.07
2017-11-25T03:26:48.591Z,38.47
2017-11-25T03:29:14.984Z,29.13
2017-11-25T03:31:41.428Z,26.30
2017-11-25T03:34:08.112Z,33.87
2017-11-25T03:36:34.410Z,41.87
2017-11-25T03:39:00.769Z,27.37
2017-11-25T03:41:27.407Z,26.63
2017-11-25T03:43:54.034Z,39.80
2017-11-25T03:46:20.452Z,28.63
2017-11-25T03:48:46.969Z,29.37
2017-11-25T03:51:13.409Z,29.37
2017-11-25T03:53:39.851Z,30.00
2017-11-25T03:56:06.269Z,22.67
2017-11-25T03:58:32.711Z,26.03
2017-11-25T04:00:59.152Z,25.40
2017-11-25T04:03:25.668Z,24.80
2017-11-25T04:05:52.010Z,32.27
2017-11-25T04:08:18.380Z,40.23
2017-11-25T04:10:44.994Z,27.00
2017-11-25T04:13:11.409Z,23.50
2017-11-25T04:15:37.850Z,23.80
2017-11-25T04:18:04.269Z,32.60
2017-11-25T04:20:30.713Z,24.93
2017-11-25T04:22:57.151Z,26.60
2017-11-25T04:25:23.624Z,22.23
2017-11-25T04:27:50.234Z,22.80
2017-11-25T04:30:16.675Z,26.30
2017-11-25T04:32:43.330Z,23.33
2017-11-25T04:35:09.835Z,24.37
2017-11-25T04:37:36.251Z,26.13
2017-11-25T04:40:02.695Z,24.23
2017-11-25T04:42:29.137Z,25.03
2017-11-25T04:44:55.528Z,21.77
2017-11-25T04:47:21.996Z,23.43
2017-11-25T04:49:48.437Z,21.20
2017-11-25T04:52:14.852Z,19.13
2017-11-25T04:54:41.294Z,18.93
2017-11-25T04:57:07.735Z,21.63
2017-11-25T04:59:34.093Z,20.13
2017-11-25T05:02:00.723Z,21.40
2017-11-25T05:04:27.060Z,19.13
2017-11-25T05:06:53.454Z,22.23
2017-11-25T05:09:19.895Z,24.27
2017-11-25T05:11:46.336Z,22.23
2017-11-25T05:14:12.751Z,25.03
2017-11-25T05:16:39.664Z,29.07
2017-11-25T05:19:06.235Z,29.43
2017-11-25T05:21:32.576Z,24.23
2017-11-25T05:23:59.089Z,31.37
2017-11-25T05:26:25.561Z,24.03
2017-11-25T05:28:51.978Z,21.17
2017-11-25T05:31:18.656Z,25.90
2017-11-25T05:33:45.295Z,25.73
2017-11-25T05:36:11.942Z,28.60
2017-11-25T05:38:38.420Z,26.80
2017-11-25T05:41:05.002Z,25.07
2017-11-25T05:43:31.642Z,24.60
2017-11-25T05:45:58.099Z,26.97
2017-11-25T05:48:24.560Z,26.80
2017-11-25T05:50:51.156Z,30.83
2017-11-25T05:53:17.647Z,29.00
2017-11-25T05:55:44.087Z,26.23
2017-11-25T05:58:10.603Z,25.30
2017-11-25T06:00:37.290Z,28.60
2017-11-25T06:03:03.791Z,24.60
2017-11-25T06:05:30.230Z,26.37
2017-11-25T06:07:56.743Z,26.50
2017-11-25T06:10:23.187Z,28.43
2017-11-25T06:12:49.633Z,25.40
2017-11-25T06:15:16.299Z,25.67
2017-11-25T06:17:42.913Z,23.67
2017-11-25T06:20:09.330Z,24.03
2017-11-25T06:22:35.772Z,25.57
2017-11-25T06:25:02.241Z,23.37
2017-11-25T06:27:28.878Z,23.33
2017-11-25T06:29:55.310Z,23.10
2017-11-25T06:32:21.934Z,25.37
2017-11-25T06:34:48.357Z,23.87
2017-11-25T06:37:15.014Z,23.17
2017-11-25T06:39:41.635Z,24.47
2017-11-25T06:42:07.890Z,24.57
2017-11-25T06:44:34.493Z,28.13
2017-11-25T06:47:00.922Z,26.30
2017-11-25T06:49:27.194Z,21.10
2017-11-25T06:51:53.819Z,21.27
2017-11-25T06:54:20.464Z,17.27
2017-11-25T06:56:46.853Z,19.60
2017-11-25T06:59:13.114Z,18.90
2017-11-25T07:01:39.764Z,16.53
2017-11-25T07:04:06.207Z,16.60
2017-11-25T07:06:33.171Z,16.83
2017-11-25T07:08:59.478Z,19.57
2017-11-25T07:11:25.859Z,19.80
2017-11-25T07:13:52.546Z,19.17
2017-11-25T07:16:19.185Z,18.50
2017-11-25T07:18:45.818Z,18.93
2017-11-25T07:21:12.462Z,21.57
2017-11-25T07:23:39.099Z,25.03
2017-11-25T07:26:05.612Z,27.00
2017-11-25T07:28:32.047Z,33.53
2017-11-25T07:30:58.465Z,26.17
2017-11-25T07:33:24.837Z,30.23
2017-11-25T07:35:51.344Z,33.27
2017-11-25T07:38:17.909Z,36.53
2017-11-25T07:40:44.405Z,34.97
2017-11-25T07:43:10.920Z,37.30
2017-11-25T07:45:37.262Z,37.93
2017-11-25T07:48:04.049Z,39.10
2017-11-25T07:50:30.670Z,40.83
2017-11-25T07:52:57.125Z,50.93
2017-11-25T07:55:23.731Z,48.33
2017-11-25T07:57:50.272Z,47.10
2017-11-25T08:00:16.631Z,45.77
2017-11-25T08:02:43.249Z,46.73
2017-11-25T08:05:09.527Z,45.27
2017-11-25T08:07:36.114Z,39.67
2017-11-25T08:10:02.753Z,39.87
2017-11-25T08:12:29.419Z,38.30
2017-11-25T08:14:56.058Z,47.70
2017-11-25T08:17:22.531Z,31.83
2017-11-25T08:19:49.073Z,35.40
2017-11-25T08:22:15.535Z,30.93
2017-11-25T08:24:42.180Z,32.67
2017-11-25T08:27:08.463Z,27.50
2017-11-25T08:29:35.042Z,28.10
2017-11-25T08:32:01.672Z,31.93
2017-11-25T08:34:27.945Z,32.33
2017-11-25T08:36:54.356Z,27.87
2017-11-25T08:39:20.760Z,29.07
2017-11-25T08:41:47.396Z,29.27
2017-11-25T08:44:13.699Z,30.20
2017-11-25T08:46:40.253Z,35.83
2017-11-25T08:49:06.728Z,34.13
2017-11-25T08:51:33.311Z,28.90
2017-11-25T08:53:59.757Z,30.77
2017-11-25T08:56:26.460Z,30.57
2017-11-25T08:58:52.695Z,31.10
2017-11-25T09:01:19.076Z,30.00
2017-11-25T09:03:45.740Z,33.03
2017-11-25T09:06:12.152Z,34.30
2017-11-25T09:08:38.556Z,33.50
2017-11-25T09:11:05.256Z,37.90
2017-11-25T09:13:31.869Z,37.37
2017-11-25T09:15:58.120Z,39.30
2017-11-25T09:18:24.541Z,38.87
2017-11-25T09:20:50.982Z,33.70
2017-11-25T09:23:17.355Z,29.97
2017-11-25T09:25:44.048Z,33.03
2017-11-25T09:28:10.510Z,35.97
2017-11-25T09:30:37.109Z,33.60
2017-11-25T09:33:03.760Z,35.93
2017-11-25T09:35:30.389Z,29.63
2017-11-25T09:37:57.002Z,27.23
2017-11-25T09:40:23.449Z,31.70
2017-11-25T09:42:50.108Z,30.90
2017-11-25T09:45:16.632Z,35.93
2017-11-25T09:47:43.148Z,33.93
2017-11-25T09:50:09.567Z,32.87
2017-11-25T09:52:36.007Z,32.80
2017-11-25T09:55:02.274Z,28.57
2017-11-25T09:57:28.890Z,30.73
2017-11-25T09:59:55.348Z,27.07
2017-11-25T10:02:21.785Z,28.07
2017-11-25T10:04:48.391Z,29.37
2017-11-25T10:07:14.809Z,24.43
2017-11-25T10:09:41.081Z,26.60
2017-11-25T10:12:07.618Z,26.27
2017-11-25T10:14:33.955Z,25.97
2017-11-25T10:17:00.225Z,28.30
2017-11-25T10:19:26.666Z,28.77
2017-11-25T10:21:53.111Z,28.13
2017-11-25T10:24:19.626Z,25.47
2017-11-25T10:26:45.967Z,26.40
2017-11-25T10:29:12.411Z,28.70
2017-11-25T10:31:38.778Z,32.47
2017-11-25T10:34:05.262Z,33.83
2017-11-25T10:36:31.688Z,36.00
2017-11-25T10:38:58.078Z,36.70
2017-11-25T10:41:24.569Z,38.70
2017-11-25T10:43:51.013Z,40.17
2017-11-25T10:46:17.379Z,41.77
2017-11-25T10:48:43.993Z,36.30
2017-11-25T10:51:10.433Z,38.73
2017-11-25T10:53:37.084Z,48.07
2017-11-25T10:56:03.319Z,46.60
2017-11-25T10:58:29.938Z,40.83
2017-11-25T11:00:57.381Z,44.60
2017-11-25T11:03:23.794Z,38.47
2017-11-25T11:05:50.237Z,41.93
2017-11-25T11:08:16.701Z,38.30
2017-11-25T11:10:43.117Z,39.97
2017-11-25T11:13:09.381Z,43.87
2017-11-25T11:15:35.813Z,38.23
2017-11-25T11:18:02.418Z,41.60
2017-11-25T11:20:28.939Z,36.77
2017-11-25T11:22:55.308Z,31.80
2017-11-25T11:25:21.822Z,35.90
2017-11-25T11:27:48.340Z,37.03
2017-11-25T11:30:14.778Z,37.07
2017-11-25T11:32:41.048Z,45.12
2017-11-25T11:35:07.684Z,45.50
2017-11-25T11:37:33.942Z,37.60
2017-11-25T11:40:00.206Z,35.97
2017-11-25T11:42:26.437Z,36.30
2017-11-25T11:44:53.005Z,30.60
2017-11-25T11:47:19.621Z,40.47
2017-11-25T11:49:46.062Z,35.77
2017-11-25T11:52:12.546Z,38.60
2017-11-25T11:54:38.950Z,42.40
2017-11-25T11:57:05.563Z,43.93
2017-11-25T11:59:32.004Z,40.30
2017-11-25T12:01:58.450Z,40.43
2017-11-25T12:04:24.683Z,38.67
2017-11-25T12:06:50.932Z,45.30
2017-11-25T12:09:17.343Z,42.90
2017-11-25T12:11:43.559Z,56.10
2017-11-25T12:14:09.826Z,51.17
2017-11-25T12:16:36.059Z,44.17
2017-11-25T12:19:02.287Z,45.40
2017-11-25T12:21:28.558Z,43.33
2017-11-25T12:23:54.999Z,47.83
2017-11-25T12:26:21.270Z,71.67
2017-11-25T12:28:47.525Z,42.13
2017-11-25T12:31:13.741Z,40.50
2017-11-25T12:33:39.990Z,45.80
2017-11-25T12:36:06.248Z,49.17
2017-11-25T12:38:32.483Z,58.50
2017-11-25T12:40:58.739Z,45.83
2017-11-25T12:43:25.025Z,49.83
2017-11-25T12:45:51.285Z,46.60
2017-11-25T12:48:17.617Z,51.33
2017-11-25T12:50:44.056Z,36.33
2017-11-25T12:53:10.666Z,39.97
2017-11-25T12:55:37.091Z,36.03
2017-11-25T12:58:03.405Z,38.57
2017-11-25T13:00:29.700Z,35.87
2017-11-25T13:02:55.966Z,34.63
2017-11-25T13:05:22.311Z,48.70
2017-11-25T13:07:48.583Z,43.37
2017-11-25T13:10:14.882Z,40.57
2017-11-25T13:12:41.148Z,37.57
2017-11-25T13:15:07.380Z,54.20
2017-11-25T13:17:33.621Z,42.00
2017-11-25T13:19:59.921Z,37.13
2017-11-25T13:22:26.270Z,41.47
2017-11-25T13:24:52.896Z,49.87
2017-11-25T13:27:19.176Z,38.00
2017-11-25T13:29:45.434Z,38.37
2017-11-25T13:32:11.678Z,44.80
2017-11-25T13:34:37.971Z,44.60
2017-11-25T13:37:04.206Z,47.97
2017-11-25T13:39:30.478Z,49.47
2017-11-25T13:41:56.775Z,68.17
2017-11-25T13:44:23.045Z,74.97
2017-11-25T13:46:49.414Z,63.87
2017-11-25T13:49:15.704Z,56.80
2017-11-25T13:51:41.938Z,64.53
2017-11-25T13:54:08.171Z,50.80
2017-11-25T13:56:34.471Z,55.90
2017-11-25T13:59:00.703Z,54.37
2017-11-25T14:01:26.949Z,52.50
2017-11-25T14:03:53.255Z,53.53
2017-11-25T14:06:19.567Z,51.17
2017-11-25T14:08:45.813Z,50.00
2017-11-25T14:11:12.109Z,43.87
2017-11-25T14:13:38.358Z,55.27
2017-11-25T14:16:04.604Z,39.80
2017-11-25T14:18:30.876Z,42.03
2017-11-25T14:20:57.111Z,41.37
2017-11-25T14:23:23.420Z,39.63
2017-11-25T14:25:49.683Z,42.67
2017-11-25T14:28:16.064Z,42.17
2017-11-25T14:30:42.323Z,44.37
2017-11-25T14:33:08.590Z,43.87
2017-11-25T14:35:34.840Z,53.80
2017-11-25T14:38:01.098Z,55.37
2017-11-25T14:40:27.380Z,64.00
2017-11-25T14:42:53.653Z,62.97
2017-11-25T14:45:20.072Z,55.13
2017-11-25T14:47:47.359Z,93.87
2017-11-25T14:50:14.629Z,59.93
2017-11-25T14:52:40.881Z,54.07
2017-11-25T14:55:07.145Z,48.57
2017-11-25T14:57:33.410Z,53.50
2017-11-25T14:59:59.663Z,122.80
2017-11-25T15:02:26.036Z,51.90
2017-11-25T15:04:52.305Z,48.63
2017-11-25T15:07:18.665Z,61.60
2017-11-25T15:09:44.872Z,55.13
2017-11-25T15:12:11.253Z,52.70
2017-11-25T15:14:37.528Z,45.47
2017-11-25T15:17:03.812Z,44.90
2017-11-25T15:19:33.326Z,50.27
2017-11-25T15:21:59.825Z,52.30
2017-11-25T15:24:26.240Z,60.03
2017-11-25T15:26:52.533Z,57.63
2017-11-25T15:29:18.790Z,58.00
2017-11-25T15:31:45.023Z,54.17
2017-11-25T15:34:11.418Z,59.77
2017-11-25T15:36:37.660Z,48.70
2017-11-25T15:39:04.237Z,49.63
2017-11-25T15:41:30.750Z,63.67
2017-11-25T15:43:57.197Z,63.20
2017-11-25T15:46:23.715Z,61.17
2017-11-25T15:48:50.157Z,54.10
2017-11-25T15:51:16.416Z,58.90
2017-11-25T15:53:42.643Z,57.58
2017-11-25T15:56:09.120Z,51.80
2017-11-25T15:58:35.369Z,49.50
2017-11-25T16:01:01.605Z,53.60
2017-11-25T16:03:27.870Z,51.40
2017-11-25T16:05:54.208Z,54.20
2017-11-25T16:08:20.447Z,51.83
2017-11-25T16:10:46.885Z,46.10
2017-11-25T16:13:13.097Z,49.97
2017-11-25T16:15:39.335Z,47.27
2017-11-25T16:18:05.604Z,52.07
2017-11-25T16:20:31.859Z,48.00
2017-11-25T16:22:58.074Z,50.80
2017-11-25T16:25:24.368Z,46.20
2017-11-25T16:27:50.633Z,48.30
2017-11-25T16:30:16.905Z,52.80
2017-11-25T16:32:43.264Z,48.23
2017-11-25T16:35:09.481Z,50.53
2017-11-25T16:37:35.714Z,47.77
2017-11-25T16:40:01.968Z,47.33
2017-11-25T16:42:28.201Z,50.07
2017-11-25T16:44:54.456Z,55.17
2017-11-25T16:47:20.722Z,46.80
2017-11-25T16:49:47.052Z,46.60
2017-11-25T16:52:13.286Z,46.37
2017-11-25T16:54:39.547Z,47.17
2017-11-25T16:57:05.756Z,44.90
2017-11-25T16:59:32.132Z,49.20
2017-11-25T17:01:58.418Z,43.13
2017-11-25T17:04:24.777Z,39.17
2017-11-25T17:06:51.141Z,37.90
2017-11-25T17:09:17.433Z,36.17
2017-11-25T17:11:43.665Z,39.37
2017-11-25T17:14:09.888Z,39.70
2017-11-25T17:16:36.158Z,41.57
2017-11-25T17:19:02.402Z,42.30
2017-11-25T17:21:28.653Z,38.07
2017-11-25T17:23:54.920Z,38.43
2017-11-25T17:26:21.166Z,37.37
2017-11-25T17:28:47.412Z,35.93
2017-11-25T17:31:13.694Z,39.40
2017-11-25T17:33:39.929Z,41.87
2017-11-25T17:36:06.173Z,40.47
2017-11-25T17:38:32.430Z,40.20
2017-11-25T17:40:58.669Z,39.20
2017-11-25T17:43:24.886Z,44.30
2017-11-25T17:45:51.164Z,46.47
2017-11-25T17:48:17.402Z,47.20
2017-11-25T17:50:43.616Z,46.10
2017-11-25T17:53:09.880Z,43.80
2017-11-25T17:55:36.117Z,44.07
2017-11-25T17:58:02.368Z,46.80
2017-11-25T18:00:28.639Z,45.03
2017-11-25T18:02:54.896Z,45.83
2017-11-25T18:05:21.257Z,45.33
2017-11-25T18:07:47.526Z,43.20
2017-11-25T18:10:13.822Z,48.83
2017-11-25T18:12:40.043Z,47.60
2017-11-25T18:15:06.330Z,45.20
2017-11-25T18:17:32.622Z,46.33
2017-11-25T18:19:58.853Z,43.07
2017-11-25T18:22:25.114Z,42.43
2017-11-25T18:24:51.353Z,39.87
2017-11-25T18:27:17.579Z,43.97
2017-11-25T18:29:43.831Z,48.77
2017-11-25T18:32:10.057Z,48.53
2017-11-25T18:34:36.296Z,50.73
2017-11-25T18:37:02.581Z,46.53
2017-11-25T18:39:28.811Z,51.17
2017-11-25T18:41:55.073Z,54.27
2017-11-25T18:44:21.347Z,52.60
2017-11-25T18:46:47.581Z,46.97
2017-11-25T18:49:14.011Z,47.70
2017-11-25T18:51:40.326Z,48.37
2017-11-25T18:54:06.519Z,42.53
2017-11-25T18:56:32.753Z,55.37
2017-11-25T18:58:59.009Z,50.37
2017-11-25T19:01:25.261Z,48.57
2017-11-25T19:03:51.494Z,45.10
2017-11-25T19:06:17.757Z,73.20
2017-11-25T19:08:43.989Z,56.03
2017-11-25T19:11:10.230Z,55.50
2017-11-25T19:13:36.518Z,67.23
2017-11-25T19:16:02.751Z,64.03
2017-11-25T19:18:29.123Z,69.47
2017-11-25T19:20:55.590Z,72.33
2017-11-25T19:23:21.861Z,60.50
2017-11-25T19:25:48.086Z,60.43
2017-11-25T19:28:14.373Z,65.60
2017-11-25T19:30:40.678Z,74.97
2017-11-25T19:33:06.893Z,62.37
2017-11-25T19:35:33.187Z,69.50
2017-11-25T19:37:59.416Z,72.70
2017-11-25T19:40:25.642Z,68.83
2017-11-25T19:42:51.898Z,63.43
2017-11-25T19:45:18.122Z,67.00
2017-11-25T19:47:44.338Z,53.07
2017-11-25T19:50:10.579Z,49.67
2017-11-25T19:52:36.828Z,55.53
2017-11-25T19:55:03.080Z,61.43
2017-11-25T19:57:29.346Z,60.37
2017-11-25T19:59:55.581Z,54.50
2017-11-25T20:02:21.829Z,55.37
2017-11-25T20:04:48.231Z,68.13
2017-11-25T20:07:14.485Z,61.63
2017-11-25T20:09:40.758Z,59.87
2017-11-25T20:12:07.060Z,59.10
2017-11-25T20:14:33.299Z,59.73
2017-11-25T20:16:59.517Z,56.23
2017-11-25T20:19:25.812Z,59.87
2017-11-25T20:21:52.029Z,61.07
2017-11-25T20:24:18.373Z,55.40
2017-11-25T20:26:44.674Z,54.77
2017-11-25T20:29:10.918Z,50.83
2017-11-25T20:31:37.154Z,69.13
2017-11-25T20:34:03.425Z,53.60
2017-11-25T20:36:29.651Z,52.33
2017-11-25T20:38:55.901Z,48.10
2017-11-25T20:41:22.172Z,49.20
2017-11-25T20:43:48.442Z,52.10
2017-11-25T20:46:14.674Z,50.40
2017-11-25T20:48:40.955Z,53.43
2017-11-25T20:51:07.180Z,44.67
2017-11-25T20:53:33.480Z,52.17
2017-11-25T20:55:59.755Z,48.07
2017-11-25T20:58:25.981Z,43.17
2017-11-25T21:00:52.233Z,41.63
2017-11-25T21:03:18.623Z,43.93
2017-11-25T21:05:44.836Z,47.07
2017-11-25T21:08:11.082Z,41.33
2017-11-25T21:10:37.423Z,44.47
2017-11-25T21:13:03.660Z,49.25
2017-11-25T21:15:29.962Z,47.67
2017-11-25T21:17:56.221Z,51.27
2017-11-25T21:20:22.468Z,47.80
2017-11-25T21:22:48.693Z,44.17
2017-11-25T21:25:15.015Z,40.40
2017-11-25T21:27:41.262Z,44.17
2017-11-25T21:30:07.532Z,34.17
2017-11-25T21:32:33.802Z,36.90
2017-11-25T21:35:00.059Z,35.97
2017-11-25T21:37:26.297Z,38.93
2017-11-25T21:39:52.569Z,37.17
2017-11-25T21:42:18.802Z,35.37
2017-11-25T21:44:45.045Z,34.27
2017-11-25T21:47:11.315Z,32.13
2017-11-25T21:49:37.609Z,33.83
2017-11-25T21:52:03.847Z,35.60
2017-11-25T21:54:30.071Z,34.37
2017-11-25T21:56:56.339Z,36.47
2017-11-25T21:59:22.586Z,40.17
2017-11-25T22:01:48.925Z,35.70
2017-11-25T22:04:15.173Z,35.83
2017-11-25T22:06:41.426Z,35.67
2017-11-25T22:09:07.658Z,33.17
2017-11-25T22:11:33.936Z,39.27
2017-11-25T22:14:00.273Z,36.83
2017-11-25T22:16:26.506Z,32.83
2017-11-25T22:18:52.779Z,33.33
2017-11-25T22:21:19.014Z,34.20
2017-11-25T22:23:45.234Z,36.40
2017-11-25T22:26:11.501Z,34.87
2017-11-25T22:28:37.713Z,29.83
2017-11-25T22:31:03.959Z,31.30
2017-11-25T22:33:30.220Z,29.80
2017-11-25T22:35:56.461Z,28.80
2017-11-25T22:38:22.690Z,26.60
2017-11-25T22:40:48.977Z,27.33
2017-11-25T22:43:15.219Z,27.07
2017-11-25T22:45:41.536Z,27.67
2017-11-25T22:48:07.819Z,28.57
2017-11-25T22:50:34.057Z,32.10
2017-11-25T22:53:00.268Z,29.27
2017-11-25T22:55:26.524Z,30.87
2017-11-25T22:57:52.799Z,28.73
2017-11-25T23:00:19.139Z,28.80
2017-11-25T23:02:45.397Z,29.00
2017-11-25T23:05:11.728Z,30.17
2017-11-25T23:07:37.937Z,34.97
2017-11-25T23:10:04.204Z,29.47
2017-11-25T23:12:30.481Z,34.97
2017-11-25T23:14:56.696Z,30.40
2017-11-25T23:17:22.954Z,34.17
2017-11-25T23:19:49.169Z,33.63
2017-11-25T23:22:15.489Z,31.93
2017-11-25T23:24:41.782Z,29.80
2017-11-25T23:27:08.157Z,29.00
2017-11-25T23:29:34.385Z,29.33
2017-11-25T23:32:00.650Z,31.67
2017-11-25T23:34:26.881Z,38.40
2017-11-25T23:36:53.125Z,32.57
2017-11-25T23:39:19.433Z,38.00
2017-11-25T23:41:45.654Z,33.80
2017-11-25T23:44:11.884Z,35.67
2017-11-25T23:46:38.180Z,37.47
2017-11-25T23:49:04.424Z,31.30
2017-11-25T23:51:30.655Z,31.30
2017-11-25T23:53:56.917Z,30.40
2017-11-25T23:56:23.172Z,32.00
2017-11-25T23:58:49.413Z,31.00
